createdAt,value
2023-01-26T00:01:44.125Z,55.30
2023-01-26T00:04:12.405Z,54.40
2023-01-26T00:06:40.303Z,49.70
2023-01-26T00:09:13.646Z,49.80
2023-01-26T00:11:41.863Z,50.90
2023-01-26T00:14:09.842Z,51.90
2023-01-26T00:16:38.074Z,51.40
2023-01-26T00:19:06.062Z,51.70
2023-01-26T00:21:34.048Z,47.50
2023-01-26T00:24:02.028Z,52.40
2023-01-26T00:26:30.367Z,51.20
2023-01-26T00:29:00.440Z,49.60
2023-01-26T00:31:28.544Z,51.40
2023-01-26T00:33:57.176Z,54.90
2023-01-26T00:36:25.469Z,50.90
2023-01-26T00:38:53.389Z,50.20
2023-01-26T00:41:39.981Z,50.60
2023-01-26T00:44:07.878Z,49.20
2023-01-26T00:46:36.047Z,49.70
2023-01-26T00:49:03.946Z,39.50
2023-01-26T00:51:34.384Z,32.40
2023-01-26T00:54:02.278Z,31.40
2023-01-26T00:56:30.139Z,32.50
2023-01-26T00:59:00.315Z,31.90
2023-01-26T01:01:28.165Z,32.20
2023-01-26T01:03:56.128Z,42.10
2023-01-26T01:06:23.972Z,38.70
2023-01-26T01:08:51.893Z,31.70
2023-01-26T01:11:19.890Z,33.50
2023-01-26T01:13:47.752Z,41.50
2023-01-26T01:16:16.796Z,41.60
2023-01-26T01:18:44.894Z,42.40
2023-01-26T01:21:17.571Z,41.80
2023-01-26T01:23:45.428Z,44.60
2023-01-26T01:26:14.622Z,44.60
2023-01-26T01:28:43.989Z,46.50
2023-01-26T01:31:15.263Z,39.00
2023-01-26T01:33:43.638Z,37.10
2023-01-26T01:36:14.010Z,33.20
2023-01-26T01:38:43.664Z,34.80
2023-01-26T01:41:12.378Z,37.60
2023-01-26T01:43:40.812Z,38.60
2023-01-26T01:46:17.328Z,36.80
2023-01-26T01:48:53.868Z,36.60
2023-01-26T01:51:42.709Z,38.90
2023-01-26T01:54:17.118Z,36.50
2023-01-26T01:56:52.238Z,36.30
2023-01-26T01:59:21.456Z,32.60
2023-01-26T02:01:53.194Z,30.90
2023-01-26T02:04:24.069Z,31.80
2023-01-26T02:06:55.374Z,31.00
2023-01-26T02:09:49.555Z,34.30
2023-01-26T02:14:52.089Z,33.70
2023-01-26T02:17:20.184Z,32.20
2023-01-26T02:19:49.242Z,30.30
2023-01-26T02:22:33.376Z,33.60
2023-01-26T02:25:07.844Z,32.70
2023-01-26T02:27:36.585Z,32.60
2023-01-26T02:30:06.414Z,31.60
2023-01-26T02:32:34.525Z,31.70
2023-01-26T02:35:02.582Z,31.90
2023-01-26T02:37:30.484Z,33.70
2023-01-26T02:40:11.383Z,32.70
2023-01-26T02:42:41.741Z,31.20
2023-01-26T02:45:13.376Z,28.00
2023-01-26T02:47:42.221Z,30.40
2023-01-26T02:50:10.908Z,33.30
2023-01-26T02:52:39.455Z,31.50
2023-01-26T02:55:28.545Z,33.70
2023-01-26T02:58:02.191Z,34.90
2023-01-26T03:00:37.349Z,31.00
2023-01-26T03:03:23.431Z,33.80
2023-01-26T03:05:52.316Z,31.30
2023-01-26T03:08:20.218Z,30.20
2023-01-26T03:10:48.170Z,33.20
2023-01-26T03:13:16.116Z,31.50
2023-01-26T03:15:52.544Z,35.10
2023-01-26T03:18:42.300Z,34.60
2023-01-26T03:21:32.596Z,35.00
2023-01-26T03:24:20.882Z,34.10
2023-01-26T03:27:08.098Z,27.90
2023-01-26T03:29:36.913Z,27.50
2023-01-26T03:32:05.092Z,27.70
2023-01-26T03:34:34.136Z,26.70
2023-01-26T03:37:02.149Z,29.50
2023-01-26T03:39:55.407Z,28.30
2023-01-26T03:42:42.993Z,26.50
2023-01-26T03:45:29.819Z,25.10
2023-01-26T03:48:26.430Z,30.10
2023-01-26T03:51:13.391Z,30.20
2023-01-26T03:54:00.206Z,31.00
2023-01-26T03:56:32.514Z,33.70
2023-01-26T03:59:09.341Z,29.00
2023-01-26T04:01:42.463Z,25.10
2023-01-26T04:04:30.039Z,29.60
2023-01-26T04:07:16.659Z,26.20
2023-01-26T04:09:49.178Z,27.30
2023-01-26T04:12:17.088Z,27.40
2023-01-26T04:15:21.496Z,30.20
2023-01-26T04:18:08.258Z,31.80
2023-01-26T04:20:54.965Z,32.70
2023-01-26T04:23:23.124Z,27.30
2023-01-26T04:25:52.510Z,25.00
2023-01-26T04:28:20.478Z,28.20
2023-01-26T04:30:49.535Z,30.30
2023-01-26T04:33:17.647Z,29.30
2023-01-26T04:35:45.703Z,33.00
2023-01-26T04:38:13.591Z,30.20
2023-01-26T04:40:43.061Z,30.70
2023-01-26T04:43:11.422Z,31.60
2023-01-26T04:45:39.413Z,27.90
2023-01-26T04:48:08.398Z,27.30
2023-01-26T04:50:36.436Z,27.60
2023-01-26T04:53:05.752Z,28.90
2023-01-26T04:55:33.938Z,28.20
2023-01-26T04:58:03.030Z,25.70
2023-01-26T05:00:32.013Z,24.90
2023-01-26T05:03:02.006Z,25.00
2023-01-26T05:05:31.035Z,25.00
2023-01-26T05:07:58.934Z,24.90
2023-01-26T05:10:29.826Z,25.60
2023-01-26T05:13:16.853Z,30.00
2023-01-26T05:16:06.182Z,30.40
2023-01-26T05:19:00.744Z,31.00
2023-01-26T05:21:49.073Z,27.00
2023-01-26T05:24:16.978Z,24.20
2023-01-26T05:27:18.569Z,23.20
2023-01-26T05:29:49.951Z,24.40
2023-01-26T05:32:18.469Z,23.40
2023-01-26T05:34:46.606Z,28.40
2023-01-26T05:37:15.754Z,24.90
2023-01-26T05:39:45.970Z,24.70
2023-01-26T05:42:14.544Z,22.10
2023-01-26T05:45:02.522Z,20.90
2023-01-26T05:47:30.932Z,19.50
2023-01-26T05:49:58.918Z,23.40
2023-01-26T05:52:29.710Z,25.50
2023-01-26T05:54:58.305Z,28.20
2023-01-26T05:57:26.180Z,26.80
2023-01-26T05:59:58.876Z,35.50
2023-01-26T06:02:30.026Z,28.10
2023-01-26T06:04:58.201Z,26.50
2023-01-26T06:07:27.151Z,30.10
2023-01-26T06:10:13.866Z,26.50
2023-01-26T06:13:03.327Z,26.80
2023-01-26T06:15:41.455Z,28.70
2023-01-26T06:18:09.687Z,28.60
2023-01-26T06:20:37.996Z,32.90
2023-01-26T06:23:11.832Z,26.10
2023-01-26T06:25:40.500Z,25.10
2023-01-26T06:28:08.915Z,28.80
2023-01-26T06:30:38.032Z,25.10
2023-01-26T06:33:09.944Z,27.10
2023-01-26T06:35:38.975Z,24.30
2023-01-26T06:38:11.208Z,24.90
2023-01-26T06:40:39.163Z,27.20
2023-01-26T06:43:07.066Z,27.00
2023-01-26T06:45:35.167Z,25.00
2023-01-26T06:48:03.113Z,26.80
2023-01-26T06:50:33.995Z,28.00
2023-01-26T06:53:04.779Z,26.70
2023-01-26T06:55:51.600Z,29.10
2023-01-26T06:58:37.514Z,29.40
2023-01-26T07:01:27.539Z,31.20
2023-01-26T07:03:55.714Z,36.50
2023-01-26T07:06:23.570Z,38.20
2023-01-26T07:08:51.422Z,42.90
2023-01-26T07:11:20.204Z,25.70
2023-01-26T07:13:48.409Z,28.70
2023-01-26T07:16:17.904Z,24.70
2023-01-26T07:18:45.813Z,30.40
2023-01-26T07:21:18.827Z,29.80
2023-01-26T07:23:47.373Z,24.10
2023-01-26T07:26:15.586Z,30.80
2023-01-26T07:28:43.538Z,30.70
2023-01-26T07:31:12.919Z,33.30
2023-01-26T07:33:41.013Z,31.90
2023-01-26T07:36:11.077Z,26.10
2023-01-26T07:38:39.212Z,35.40
2023-01-26T07:41:10.070Z,29.30
2023-01-26T07:43:38.653Z,27.90
2023-01-26T07:46:10.970Z,28.10
2023-01-26T07:48:41.838Z,29.60
2023-01-26T07:51:11.207Z,30.60
2023-01-26T07:53:39.828Z,31.30
2023-01-26T07:56:14.115Z,35.20
2023-01-26T07:58:42.957Z,35.60
2023-01-26T08:01:13.280Z,37.20
2023-01-26T08:03:41.989Z,35.70
2023-01-26T08:06:12.398Z,32.80
2023-01-26T08:08:42.114Z,35.20
2023-01-26T08:11:11.915Z,33.10
2023-01-26T08:13:40.097Z,30.80
2023-01-26T08:16:12.069Z,24.20
2023-01-26T08:18:42.378Z,25.80
2023-01-26T08:21:11.314Z,28.40
2023-01-26T08:23:39.401Z,23.00
2023-01-26T08:26:10.758Z,25.20
2023-01-26T08:28:39.252Z,26.50
2023-01-26T08:31:25.540Z,22.70
2023-01-26T08:33:55.205Z,23.70
2023-01-26T08:36:23.454Z,29.40
2023-01-26T08:38:52.210Z,29.60
2023-01-26T08:41:20.151Z,33.70
2023-01-26T08:43:48.514Z,30.10
2023-01-26T08:46:16.610Z,28.60
2023-01-26T08:48:44.643Z,31.50
2023-01-26T08:51:12.511Z,30.00
2023-01-26T08:53:40.409Z,29.60
2023-01-26T08:56:11.153Z,34.20
2023-01-26T08:58:39.678Z,36.70
2023-01-26T09:01:11.785Z,35.10
2023-01-26T09:03:40.014Z,35.10
2023-01-26T09:06:10.523Z,36.80
2023-01-26T09:08:38.468Z,36.50
2023-01-26T09:11:07.256Z,38.90
2023-01-26T09:13:37.144Z,40.30
2023-01-26T09:16:13.235Z,43.60
2023-01-26T09:18:41.175Z,46.90
2023-01-26T09:21:09.486Z,41.60
2023-01-26T09:23:38.776Z,33.30
2023-01-26T09:26:06.642Z,30.70
2023-01-26T09:28:34.591Z,38.90
2023-01-26T09:31:11.409Z,36.90
2023-01-26T09:33:39.402Z,39.90
2023-01-26T09:36:09.954Z,34.10
2023-01-26T09:38:38.753Z,36.70
2023-01-26T09:41:35.265Z,31.80
2023-01-26T09:44:10.800Z,36.20
2023-01-26T09:46:59.339Z,43.00
2023-01-26T09:49:42.928Z,44.20
2023-01-26T09:52:14.291Z,34.80
2023-01-26T09:54:49.175Z,31.90
2023-01-26T09:57:22.092Z,31.00
2023-01-26T10:00:09.266Z,36.90
2023-01-26T10:02:43.023Z,33.00
2023-01-26T10:05:35.980Z,33.60
2023-01-26T10:08:12.903Z,32.20
2023-01-26T10:10:48.674Z,29.00
2023-01-26T10:13:18.479Z,33.10
2023-01-26T10:15:52.096Z,32.00
2023-01-26T10:20:54.361Z,35.10
2023-01-26T10:23:28.168Z,34.60
2023-01-26T10:26:11.487Z,30.60
2023-01-26T10:28:41.463Z,25.10
2023-01-26T10:31:21.807Z,25.30
2023-01-26T10:34:03.362Z,26.50
2023-01-26T10:36:32.210Z,25.20
2023-01-26T10:39:08.969Z,26.00
2023-01-26T10:41:37.594Z,26.90
2023-01-26T10:44:34.768Z,29.00
2023-01-26T10:47:17.600Z,28.30
2023-01-26T10:49:45.879Z,23.30
2023-01-26T10:52:27.216Z,25.10
2023-01-26T10:55:24.150Z,23.90
2023-01-26T10:57:52.504Z,21.70
2023-01-26T11:00:26.306Z,22.30
2023-01-26T11:03:04.667Z,20.50
2023-01-26T11:05:32.609Z,20.50
2023-01-26T11:08:02.974Z,21.60
2023-01-26T11:10:36.411Z,23.80
2023-01-26T11:13:20.315Z,24.00
2023-01-26T11:18:42.781Z,26.00
2023-01-26T11:21:20.333Z,25.40
2023-01-26T11:23:52.685Z,26.60
2023-01-26T11:26:39.200Z,19.40
2023-01-26T11:29:25.514Z,26.20
2023-01-26T11:32:15.200Z,22.90
2023-01-26T11:34:54.562Z,21.40
2023-01-26T11:37:47.818Z,22.80
2023-01-26T11:40:23.657Z,22.00
2023-01-26T11:43:18.812Z,18.70
2023-01-26T11:46:05.390Z,18.20
2023-01-26T11:48:55.122Z,21.70
2023-01-26T11:51:45.137Z,21.20
2023-01-26T11:54:51.366Z,18.20
2023-01-26T11:57:31.716Z,22.50
2023-01-26T12:00:29.451Z,22.70
2023-01-26T12:03:05.390Z,22.00
2023-01-26T12:05:54.188Z,20.10
2023-01-26T12:08:27.878Z,23.60
2023-01-26T12:13:43.749Z,20.90
2023-01-26T12:16:18.572Z,26.30
2023-01-26T12:19:09.155Z,25.80
2023-01-26T12:21:43.849Z,27.60
2023-01-26T12:24:48.327Z,23.40
2023-01-26T12:27:23.383Z,21.00
2023-01-26T12:30:16.499Z,22.90
2023-01-26T12:32:44.736Z,23.40
2023-01-26T12:35:14.293Z,22.40
2023-01-26T12:37:53.846Z,23.50
2023-01-26T12:40:27.572Z,22.20
2023-01-26T12:45:32.666Z,19.70
2023-01-26T12:48:22.943Z,24.00
2023-01-26T12:51:05.606Z,24.50
2023-01-26T12:54:03.085Z,23.80
2023-01-26T12:56:43.357Z,24.70
2023-01-26T12:59:47.831Z,27.00
2023-01-26T13:02:16.577Z,22.10
2023-01-26T13:04:48.617Z,27.00
2023-01-26T13:07:39.999Z,24.20
2023-01-26T13:10:17.926Z,29.10
2023-01-26T13:12:59.611Z,27.40
2023-01-26T13:15:31.257Z,27.70
2023-01-26T13:18:01.739Z,26.90
2023-01-26T13:20:43.310Z,24.60
2023-01-26T13:23:42.155Z,29.40
2023-01-26T13:26:33.283Z,25.50
2023-01-26T13:29:51.837Z,23.90
2023-01-26T13:32:19.634Z,18.50
2023-01-26T13:34:59.849Z,20.30
2023-01-26T13:37:49.597Z,28.80
2023-01-26T13:40:33.424Z,31.80
2023-01-26T13:46:17.737Z,35.10
2023-01-26T13:48:50.421Z,25.70
2023-01-26T13:51:27.041Z,19.30
2023-01-26T13:54:12.764Z,19.20
2023-01-26T13:56:43.299Z,22.50
2023-01-26T13:59:19.988Z,17.90
2023-01-26T14:01:50.687Z,20.60
2023-01-26T14:04:29.927Z,19.30
2023-01-26T14:07:06.892Z,22.50
2023-01-26T14:09:46.412Z,20.60
2023-01-26T14:12:22.856Z,19.10
2023-01-26T14:15:03.462Z,21.70
2023-01-26T14:17:34.101Z,21.40
2023-01-26T14:20:17.069Z,24.10
2023-01-26T14:22:44.986Z,26.80
2023-01-26T14:25:13.065Z,31.70
2023-01-26T14:27:42.399Z,31.00
2023-01-26T14:30:31.917Z,23.60
2023-01-26T14:33:13.623Z,25.60
2023-01-26T14:35:54.333Z,32.70
2023-01-26T14:38:22.222Z,26.50
2023-01-26T14:40:55.689Z,28.30
2023-01-26T14:43:24.302Z,30.10
2023-01-26T14:46:09.635Z,27.40
2023-01-26T14:48:50.878Z,23.80
2023-01-26T14:51:23.349Z,25.30
2023-01-26T14:53:55.574Z,18.20
2023-01-26T14:56:37.967Z,20.80
2023-01-26T14:59:08.358Z,20.50
2023-01-26T15:01:36.399Z,24.80
2023-01-26T15:04:26.247Z,21.20
2023-01-26T15:06:54.202Z,38.70
2023-01-26T15:09:31.747Z,29.30
2023-01-26T15:12:18.896Z,37.60
2023-01-26T15:14:48.737Z,46.20
2023-01-26T15:17:41.839Z,50.10
2023-01-26T15:20:15.536Z,38.50
2023-01-26T15:25:21.415Z,28.60
2023-01-26T15:27:53.503Z,32.00
2023-01-26T15:30:31.750Z,30.50
2023-01-26T15:33:00.505Z,30.00
2023-01-26T15:35:34.070Z,27.30
2023-01-26T15:38:03.978Z,25.40
2023-01-26T15:40:32.468Z,20.50
2023-01-26T15:43:18.257Z,19.50
2023-01-26T15:45:55.320Z,18.90
2023-01-26T15:48:24.869Z,26.60
2023-01-26T15:50:53.136Z,26.30
2023-01-26T15:53:22.528Z,28.50
2023-01-26T15:55:56.230Z,27.30
2023-01-26T15:58:25.888Z,27.80
2023-01-26T16:00:53.990Z,19.70
2023-01-26T16:03:22.726Z,24.60
2023-01-26T16:05:50.662Z,26.20
2023-01-26T16:08:19.574Z,24.90
2023-01-26T16:10:47.748Z,26.50
2023-01-26T16:13:18.344Z,27.70
2023-01-26T16:15:51.408Z,26.30
2023-01-26T16:18:20.303Z,26.70
2023-01-26T16:20:49.612Z,28.60
2023-01-26T16:23:19.463Z,25.60
2023-01-26T16:25:48.335Z,28.60
2023-01-26T16:28:17.227Z,33.10
2023-01-26T16:30:46.971Z,33.40
2023-01-26T16:33:17.908Z,32.70
2023-01-26T16:35:45.800Z,28.20
2023-01-26T16:38:13.849Z,27.50
2023-01-26T16:40:44.843Z,33.90
2023-01-26T16:43:23.787Z,54.80
2023-01-26T16:45:53.049Z,42.30
2023-01-26T16:48:22.651Z,38.60
2023-01-26T16:50:53.135Z,42.40
2023-01-26T16:53:29.244Z,37.10
2023-01-26T16:55:57.428Z,31.30
2023-01-26T16:58:30.551Z,34.40
2023-01-26T17:00:58.569Z,33.10
2023-01-26T17:03:26.629Z,29.90
2023-01-26T17:05:56.323Z,30.20
2023-01-26T17:08:24.262Z,23.60
2023-01-26T17:11:02.083Z,23.10
2023-01-26T17:13:31.641Z,23.90
2023-01-26T17:15:59.701Z,24.70
2023-01-26T17:18:27.582Z,27.50
2023-01-26T17:21:02.658Z,34.80
2023-01-26T17:23:31.511Z,34.80
2023-01-26T17:26:00.555Z,31.20
2023-01-26T17:28:28.583Z,32.10
2023-01-26T17:30:57.337Z,35.10
2023-01-26T17:33:26.403Z,22.60
2023-01-26T17:36:06.635Z,24.90
2023-01-26T17:38:35.032Z,22.70
2023-01-26T17:41:03.870Z,26.80
2023-01-26T17:43:32.376Z,23.80
2023-01-26T17:46:15.095Z,22.60
2023-01-26T17:48:45.279Z,19.60
2023-01-26T17:51:16.786Z,21.70
2023-01-26T17:53:46.920Z,27.00
2023-01-26T17:56:17.476Z,21.40
2023-01-26T17:58:53.822Z,28.10
2023-01-26T18:01:23.418Z,30.00
2023-01-26T18:03:53.668Z,28.10
2023-01-26T18:06:22.070Z,21.40
2023-01-26T18:08:50.277Z,20.30
2023-01-26T18:11:18.215Z,27.10
2023-01-26T18:13:46.886Z,22.70
2023-01-26T18:16:18.053Z,28.60
2023-01-26T18:18:46.860Z,21.60
2023-01-26T18:21:20.606Z,20.20
2023-01-26T18:23:54.103Z,25.90
2023-01-26T18:26:24.446Z,24.40
2023-01-26T18:28:52.902Z,29.90
2023-01-26T18:31:36.086Z,16.10
2023-01-26T18:34:04.755Z,14.80
2023-01-26T18:36:32.862Z,15.50
2023-01-26T18:39:03.773Z,15.60
2023-01-26T18:41:33.173Z,18.00
2023-01-26T18:44:03.036Z,17.90
2023-01-26T18:46:31.376Z,20.90
2023-01-26T18:49:01.051Z,21.00
2023-01-26T18:51:35.227Z,25.20
2023-01-26T18:54:05.839Z,25.00
2023-01-26T18:56:33.840Z,26.20
2023-01-26T18:59:02.005Z,23.60
2023-01-26T19:01:29.954Z,22.30
2023-01-26T19:03:58.967Z,23.10
2023-01-26T19:06:28.904Z,26.60
2023-01-26T19:09:00.923Z,28.10
2023-01-26T19:11:31.861Z,27.40
2023-01-26T19:14:01.138Z,31.00
2023-01-26T19:16:30.133Z,35.00
2023-01-26T19:18:58.421Z,34.00
2023-01-26T19:21:27.662Z,35.40
2023-01-26T19:23:58.699Z,30.30
2023-01-26T19:26:29.744Z,29.90
2023-01-26T19:28:58.712Z,32.50
2023-01-26T19:31:27.400Z,31.20
2023-01-26T19:33:58.293Z,24.40
2023-01-26T19:36:28.001Z,24.70
2023-01-26T19:38:56.212Z,26.80
2023-01-26T19:41:24.854Z,29.50
2023-01-26T19:43:53.526Z,24.90
2023-01-26T19:46:21.860Z,30.10
2023-01-26T19:48:50.377Z,22.10
2023-01-26T19:51:23.865Z,22.50
2023-01-26T19:53:55.745Z,25.20
2023-01-26T19:56:26.759Z,20.90
2023-01-26T19:58:57.170Z,21.50
2023-01-26T20:01:26.821Z,21.30
2023-01-26T20:03:58.932Z,18.60
2023-01-26T20:06:29.713Z,24.80
2023-01-26T20:08:58.621Z,20.30
2023-01-26T20:11:29.068Z,20.10
2023-01-26T20:14:02.181Z,22.90
2023-01-26T20:16:30.875Z,22.10
2023-01-26T20:18:59.657Z,24.10
2023-01-26T20:21:28.546Z,32.20
2023-01-26T20:23:56.701Z,31.60
2023-01-26T20:26:26.371Z,32.10
2023-01-26T20:28:58.012Z,29.10
2023-01-26T20:31:26.856Z,25.70
2023-01-26T20:33:55.343Z,21.00
2023-01-26T20:36:27.184Z,26.60
2023-01-26T20:38:55.573Z,28.00
2023-01-26T20:41:27.256Z,28.00
2023-01-26T20:44:00.232Z,29.60
2023-01-26T20:46:32.268Z,31.70
2023-01-26T20:49:00.862Z,26.70
2023-01-26T20:51:33.876Z,28.30
2023-01-26T20:54:04.209Z,19.70
2023-01-26T20:56:32.540Z,24.10
2023-01-26T20:59:00.707Z,20.60
2023-01-26T21:01:28.762Z,26.60
2023-01-26T21:03:56.748Z,28.60
2023-01-26T21:06:26.137Z,28.20
2023-01-26T21:08:57.113Z,33.20
2023-01-26T21:11:27.479Z,35.10
2023-01-26T21:13:56.924Z,24.70
2023-01-26T21:16:25.214Z,27.20
2023-01-26T21:18:53.968Z,22.90
2023-01-26T21:21:22.359Z,23.90
2023-01-26T21:23:50.812Z,25.60
2023-01-26T21:26:24.178Z,29.10
2023-01-26T21:28:57.427Z,30.50
2023-01-26T21:31:28.140Z,33.30
2023-01-26T21:33:56.681Z,21.60
2023-01-26T21:36:27.374Z,22.20
2023-01-26T21:38:57.552Z,21.50
2023-01-26T21:41:49.626Z,21.30
2023-01-26T21:44:21.398Z,22.20
2023-01-26T21:46:51.957Z,20.60
2023-01-26T21:49:20.864Z,17.90
2023-01-26T21:52:08.192Z,22.00
2023-01-26T21:54:36.349Z,20.10
2023-01-26T21:57:25.915Z,16.80
2023-01-26T21:59:54.157Z,19.80
2023-01-26T22:02:22.815Z,14.70
2023-01-26T22:04:51.121Z,14.20
2023-01-26T22:07:18.955Z,16.60
2023-01-26T22:09:46.993Z,15.20
2023-01-26T22:12:14.901Z,18.10
2023-01-26T22:14:42.756Z,16.40
2023-01-26T22:17:10.641Z,19.30
2023-01-26T22:19:38.605Z,17.60
2023-01-26T22:22:06.517Z,20.70
2023-01-26T22:24:34.522Z,19.50
2023-01-26T22:27:02.474Z,14.10
2023-01-26T22:29:30.365Z,14.70
2023-01-26T22:31:58.427Z,22.20
2023-01-26T22:34:26.587Z,16.10
2023-01-26T22:36:54.449Z,16.00
2023-01-26T22:39:22.311Z,16.90
2023-01-26T22:41:50.206Z,17.50
2023-01-26T22:44:18.163Z,13.50
2023-01-26T22:46:46.023Z,17.40
2023-01-26T22:49:13.975Z,13.30
2023-01-26T22:51:41.962Z,16.50
2023-01-26T22:54:10.447Z,19.30
2023-01-26T22:56:38.301Z,14.10
2023-01-26T22:59:06.231Z,18.90
2023-01-26T23:01:34.184Z,20.40
2023-01-26T23:04:02.172Z,20.00
2023-01-26T23:06:30.375Z,18.60
2023-01-26T23:09:01.094Z,19.30
2023-01-26T23:11:29.719Z,21.70
2023-01-26T23:13:59.417Z,22.00
2023-01-26T23:16:27.880Z,21.50
2023-01-26T23:18:57.848Z,19.20
2023-01-26T23:21:27.580Z,20.40
2023-01-26T23:23:56.085Z,17.20
2023-01-26T23:26:24.132Z,19.20
2023-01-26T23:28:52.098Z,13.90
2023-01-26T23:31:20.189Z,14.60
2023-01-26T23:33:48.524Z,18.10
2023-01-26T23:36:16.457Z,16.70
2023-01-26T23:38:45.834Z,18.90
2023-01-26T23:41:14.222Z,15.90
2023-01-26T23:43:42.152Z,17.30
2023-01-26T23:46:11.886Z,18.70
2023-01-26T23:48:39.846Z,17.00
2023-01-26T23:51:10.350Z,14.00
2023-01-26T23:53:38.526Z,16.40
2023-01-26T23:56:09.578Z,14.90
2023-01-26T23:58:37.816Z,16.70
